Terminal Aerodrome Forecast
Issued by NWS

Home | Current Version | Previous Version | Text Only | Print | Product List | Glossary On
Versions: 1 2 3 4 5 6 7 8 9 10 11 12 13 14 15
000
FTUS46 KMTR 282300
TAFSTS
TAF
KSTS 282320Z 2900/2924 20004KT P6SM SCT200
     FM290700 33002KT 1SM BR SCT200
     FM291000 00000KT 1/2SM FG VV002
     FM291600 33003KT 5SM BR FEW200
     FM292100 29005KT P6SM SKC=

USA.gov is the U.S. government's official web portal to all federal, state and local government web resources and services.